Time;durP1;ratioP1;P1;durP2;ratioP2;P2;SDS_P1;SDS_P2;PMS_P1;PMS_P2;Temp;Humidity;BMP_temperature;BMP_pressure;BME280_temperature;BME280_humidity;BME280_pressure;Samples;Min_cycle;Max_cycle;Signal;HPM_P1;HPM_P2
2024/03/16 00:01:24;;;;;;;0.32;0.32;;;;;;;;;;5060439;28;20507;-88
2024/03/16 00:03:50;;;;;;;0.10;0.10;;;;;;;;;;5076986;28;20047;-88
2024/03/16 00:06:16;;;;;;;0.10;0.10;;;;;;;;;;5076971;28;20043;-88
2024/03/16 00:08:43;;;;;;;0.10;0.10;;;;;;;;;;5060364;28;20040;-88
2024/03/16 00:11:09;;;;;;;0.10;0.10;;;;;;;;;;5060048;28;20043;-88
2024/03/16 00:13:36;;;;;;;0.10;0.10;;;;;;;;;;5076805;28;20068;-88
2024/03/16 00:16:02;;;;;;;0.28;0.28;;;;;;;;;;5076693;28;20047;-88
2024/03/16 00:18:28;;;;;;;0.20;0.20;;;;;;;;;;5060331;28;20510;-88
2024/03/16 00:20:55;;;;;;;0.10;0.10;;;;;;;;;;5059770;28;20032;-88
2024/03/16 00:23:21;;;;;;;0.10;0.10;;;;;;;;;;5060120;28;20047;-88
2024/03/16 00:25:47;;;;;;;0.10;0.10;;;;;;;;;;5076560;28;20043;-88
2024/03/16 00:28:13;;;;;;;0.10;0.10;;;;;;;;;;5059785;28;20058;-87
2024/03/16 00:30:39;;;;;;;0.10;0.10;;;;;;;;;;5059663;28;20036;-87
2024/03/16 00:33:07;;;;;;;0.30;0.30;;;;;;;;;;5076545;28;20044;-87
2024/03/16 00:35:33;;;;;;;5.38;0.35;;;;;;;;;;5059995;28;20040;-87
2024/03/16 00:37:59;;;;;;;0.10;0.10;;;;;;;;;;5059589;28;20051;-87
2024/03/16 00:40:25;;;;;;;0.10;0.10;;;;;;;;;;5076125;28;20044;-87
2024/03/16 00:42:51;;;;;;;0.10;0.10;;;;;;;;;;5059738;28;20451;-87
2024/03/16 00:45:17;;;;;;;0.10;0.10;;;;;;;;;;5076128;28;20043;-87
2024/03/16 00:47:43;;;;;;;0.10;0.10;;;;;;;;;;5059704;28;20070;-87
2024/03/16 00:50:09;;;;;;;0.10;0.10;;;;;;;;;;5076250;28;20390;-87
2024/03/16 00:52:35;;;;;;;0.10;0.10;;;;;;;;;;5059360;28;20048;-87
2024/03/16 00:55:03;;;;;;;0.10;0.10;;;;;;;;;;5075436;28;20043;-87
2024/03/16 00:57:29;;;;;;;0.17;0.17;;;;;;;;;;5059418;28;20508;-88
2024/03/16 00:59:55;;;;;;;0.30;0.30;;;;;;;;;;5075912;28;20081;-87
2024/03/16 01:02:22;;;;;;;0.10;0.10;;;;;;;;;;5075478;28;20485;-87
2024/03/16 01:04:48;;;;;;;0.10;0.10;;;;;;;;;;5075819;28;20086;-87
2024/03/16 01:07:15;;;;;;;3.08;2.17;;;;;;;;;;5075637;28;20122;-88
2024/03/16 01:09:41;;;;;;;0.20;0.20;;;;;;;;;;5059144;28;20136;-88
2024/03/16 01:12:07;;;;;;;0.20;0.20;;;;;;;;;;5076043;28;20032;-87
2024/03/16 01:14:34;;;;;;;0.20;0.20;;;;;;;;;;5042944;28;20074;-87
2024/03/16 01:17:00;;;;;;;0.10;0.10;;;;;;;;;;5075537;28;20093;-88
2024/03/16 01:19:26;;;;;;;0.10;0.10;;;;;;;;;;5075317;28;20043;-87
2024/03/16 01:21:52;;;;;;;0.10;0.10;;;;;;;;;;5075193;28;20072;-87
2024/03/16 01:24:18;;;;;;;0.10;0.10;;;;;;;;;;5058939;28;20082;-87
2024/03/16 01:26:44;;;;;;;0.10;0.10;;;;;;;;;;5058698;28;20071;-87
2024/03/16 01:29:15;;;;;;;0.10;0.10;;;;;;;;;;5075211;28;20479;-87
2024/03/16 01:31:41;;;;;;;0.10;0.10;;;;;;;;;;5059356;28;20039;-86
2024/03/16 01:34:07;;;;;;;3.05;0.43;;;;;;;;;;5075469;28;20066;-86
2024/03/16 01:36:33;;;;;;;0.10;0.10;;;;;;;;;;5058774;28;20083;-87
2024/03/16 01:38:59;;;;;;;0.20;0.20;;;;;;;;;;5075210;28;20059;-86
2024/03/16 01:41:26;;;;;;;0.20;0.20;;;;;;;;;;5058602;28;20032;-87
2024/03/16 01:43:52;;;;;;;0.10;0.10;;;;;;;;;;5058472;28;20047;-87
2024/03/16 01:46:18;;;;;;;0.20;0.20;;;;;;;;;;5074906;28;20044;-86
2024/03/16 01:48:44;;;;;;;0.10;0.10;;;;;;;;;;5058042;28;20032;-87
2024/03/16 01:51:10;;;;;;;0.20;0.20;;;;;;;;;;5058541;28;20483;-86
2024/03/16 01:53:38;;;;;;;0.10;0.10;;;;;;;;;;5058169;28;20065;-87
2024/03/16 01:56:04;;;;;;;0.30;0.30;;;;;;;;;;5058540;28;20079;-87
2024/03/16 01:58:30;;;;;;;0.13;0.13;;;;;;;;;;5074742;28;20042;-87
2024/03/16 02:00:56;;;;;;;0.10;0.10;;;;;;;;;;5074470;28;20449;-87
2024/03/16 02:03:22;;;;;;;0.10;0.10;;;;;;;;;;5074408;28;20047;-87
2024/03/16 02:05:48;;;;;;;0.20;0.20;;;;;;;;;;5058213;28;20036;-86
2024/03/16 02:08:15;;;;;;;0.65;0.65;;;;;;;;;;5057760;28;20044;-87
2024/03/16 02:10:41;;;;;;;0.20;0.20;;;;;;;;;;5058027;28;20044;-88
2024/03/16 02:13:08;;;;;;;0.20;0.20;;;;;;;;;;5058113;28;20079;-86
2024/03/16 02:15:33;;;;;;;2.83;0.65;;;;;;;;;;5074429;28;20518;-87
2024/03/16 02:18:00;;;;;;;0.10;0.10;;;;;;;;;;5074506;28;20043;-87
2024/03/16 02:20:26;;;;;;;0.20;0.20;;;;;;;;;;5057498;28;20040;-87
2024/03/16 02:22:52;;;;;;;0.20;0.20;;;;;;;;;;5057691;28;20032;-86
2024/03/16 02:25:18;;;;;;;0.20;0.20;;;;;;;;;;5058033;28;20387;-86
2024/03/16 02:27:44;;;;;;;0.10;0.10;;;;;;;;;;5074341;28;20043;-86
2024/03/16 02:30:13;;;;;;;0.52;0.30;;;;;;;;;;5057774;28;20040;-86
2024/03/16 02:32:39;;;;;;;0.10;0.10;;;;;;;;;;5074613;28;20127;-86
2024/03/16 02:35:08;;;;;;;0.10;0.10;;;;;;;;;;5057511;28;20044;-88
2024/03/16 02:37:34;;;;;;;0.20;0.20;;;;;;;;;;5058156;28;20048;-87
2024/03/16 02:40:00;;;;;;;0.10;0.10;;;;;;;;;;5057576;28;20487;-87
2024/03/16 02:42:27;;;;;;;0.10;0.10;;;;;;;;;;5057547;28;20126;-88
2024/03/16 02:44:53;;;;;;;0.10;0.10;;;;;;;;;;5074634;28;20373;-87
2024/03/16 02:47:20;;;;;;;0.10;0.10;;;;;;;;;;5057477;28;20086;-87
2024/03/16 02:49:49;;;;;;;0.20;0.20;;;;;;;;;;5057561;28;20110;-87
2024/03/16 02:52:15;;;;;;;0.10;0.10;;;;;;;;;;5057969;28;20047;-87
2024/03/16 02:54:41;;;;;;;0.10;0.10;;;;;;;;;;5057706;28;20040;-86
2024/03/16 02:57:07;;;;;;;0.20;0.20;;;;;;;;;;5057495;28;20071;-88
2024/03/16 02:59:36;;;;;;;0.10;0.10;;;;;;;;;;5074116;28;20366;-87
2024/03/16 03:02:02;;;;;;;0.10;0.10;;;;;;;;;;5057484;28;20492;-87
2024/03/16 03:04:28;;;;;;;0.10;0.10;;;;;;;;;;5057359;28;20052;-85
2024/03/16 03:06:54;;;;;;;0.20;0.20;;;;;;;;;;5074294;28;20379;-85
2024/03/16 03:09:20;;;;;;;0.17;0.17;;;;;;;;;;5057388;28;20051;-87
2024/03/16 03:11:46;;;;;;;0.10;0.10;;;;;;;;;;5090826;28;20452;-86
2024/03/16 03:14:16;;;;;;;0.10;0.10;;;;;;;;;;5074049;28;20376;-86
2024/03/16 03:16:43;;;;;;;0.20;0.20;;;;;;;;;;5090908;28;20051;-85
2024/03/16 03:19:09;;;;;;;0.10;0.10;;;;;;;;;;5091965;28;20208;-85
2024/03/16 03:21:35;;;;;;;0.20;0.20;;;;;;;;;;5060995;28;20108;-85
2024/03/16 03:24:03;;;;;;;0.20;0.20;;;;;;;;;;5061056;28;20047;-86
2024/03/16 03:26:29;;;;;;;0.10;0.10;;;;;;;;;;5061438;28;20040;-86
2024/03/16 03:28:55;;;;;;;0.10;0.10;;;;;;;;;;5060831;28;20044;-85
2024/03/16 03:31:21;;;;;;;0.10;0.10;;;;;;;;;;5060835;28;20032;-86
2024/03/16 03:33:48;;;;;;;0.10;0.10;;;;;;;;;;5060944;28;20074;-86
2024/03/16 03:36:15;;;;;;;0.10;0.10;;;;;;;;;;5060880;28;20042;-87
2024/03/16 03:38:41;;;;;;;0.20;0.20;;;;;;;;;;5060921;28;20044;-86
2024/03/16 03:41:08;;;;;;;0.20;0.20;;;;;;;;;;5094371;28;20446;-86
2024/03/16 03:43:36;;;;;;;0.10;0.10;;;;;;;;;;5061039;28;20472;-86
2024/03/16 03:46:04;;;;;;;0.30;0.30;;;;;;;;;;5077941;28;20433;-86
2024/03/16 03:48:40;;;;;;;0.10;0.10;;;;;;;;;;5060811;28;20436;-86
2024/03/16 03:51:07;;;;;;;0.10;0.10;;;;;;;;;;5062028;28;20223;-86
2024/03/16 03:53:33;;;;;;;0.10;0.10;;;;;;;;;;5077115;28;20036;-86
2024/03/16 03:55:59;;;;;;;0.10;0.10;;;;;;;;;;5060245;28;20033;-85
2024/03/16 03:58:26;;;;;;;0.10;0.10;;;;;;;;;;5077138;28;20391;-87
2024/03/16 04:00:52;;;;;;;0.10;0.10;;;;;;;;;;5060247;28;20132;-87
2024/03/16 04:03:18;;;;;;;0.10;0.10;;;;;;;;;;5060241;28;20091;-86
2024/03/16 04:05:44;;;;;;;0.22;0.22;;;;;;;;;;5076878;28;20062;-85
2024/03/16 04:08:10;;;;;;;0.20;0.20;;;;;;;;;;5076873;28;20097;-86
2024/03/16 04:10:37;;;;;;;0.13;0.13;;;;;;;;;;5059979;28;20040;-85
2024/03/16 04:13:03;;;;;;;0.10;0.10;;;;;;;;;;5076858;28;20051;-87
2024/03/16 04:15:29;;;;;;;0.10;0.10;;;;;;;;;;5060291;28;20399;-87
2024/03/16 04:17:55;;;;;;;0.10;0.10;;;;;;;;;;5059942;28;20040;-87
2024/03/16 04:20:21;;;;;;;0.17;0.17;;;;;;;;;;5059801;28;20040;-85
2024/03/16 04:22:48;;;;;;;0.10;0.10;;;;;;;;;;5060113;28;20046;-87
2024/03/16 04:25:14;;;;;;;0.10;0.10;;;;;;;;;;5060054;28;20063;-86
2024/03/16 04:27:40;;;;;;;0.10;0.10;;;;;;;;;;5059860;28;20028;-86
2024/03/16 04:30:06;;;;;;;0.10;0.10;;;;;;;;;;5059069;28;20670;-86
2024/03/16 04:32:33;;;;;;;0.10;0.10;;;;;;;;;;5059427;28;20498;-86
2024/03/16 04:35:00;;;;;;;0.32;0.32;;;;;;;;;;5060042;28;20085;-86
2024/03/16 04:37:26;;;;;;;0.10;0.10;;;;;;;;;;5060032;28;20058;-86
2024/03/16 04:39:53;;;;;;;0.10;0.10;;;;;;;;;;5059558;28;20460;-86
2024/03/16 04:42:19;;;;;;;0.10;0.10;;;;;;;;;;5076605;28;20035;-86
2024/03/16 04:44:45;;;;;;;0.25;0.25;;;;;;;;;;5059571;28;20040;-86
2024/03/16 04:47:11;;;;;;;0.10;0.10;;;;;;;;;;5076170;28;20090;-86
2024/03/16 04:49:37;;;;;;;0.25;0.25;;;;;;;;;;5059694;28;20400;-86
2024/03/16 04:52:03;;;;;;;0.25;0.25;;;;;;;;;;5092673;28;20046;-86
2024/03/16 04:54:29;;;;;;;0.20;0.20;;;;;;;;;;5059621;28;20082;-86
2024/03/16 04:56:55;;;;;;;0.75;0.20;;;;;;;;;;5059344;28;20073;-87
2024/03/16 04:59:21;;;;;;;0.20;0.20;;;;;;;;;;5059303;28;20036;-87
2024/03/16 05:01:47;;;;;;;0.20;0.20;;;;;;;;;;5059125;28;20051;-86
2024/03/16 05:04:13;;;;;;;0.20;0.20;;;;;;;;;;5075977;28;20043;-87
2024/03/16 05:06:40;;;;;;;0.10;0.10;;;;;;;;;;5059163;28;20071;-86
2024/03/16 05:09:09;;;;;;;0.10;0.10;;;;;;;;;;5076162;28;20060;-86
2024/03/16 05:11:36;;;;;;;0.10;0.10;;;;;;;;;;5076096;28;20048;-86
2024/03/16 05:14:05;;;;;;;0.10;0.10;;;;;;;;;;5059127;28;20040;-86
2024/03/16 05:16:34;;;;;;;0.10;0.10;;;;;;;;;;5059497;28;20071;-85
2024/03/16 05:19:02;;;;;;;0.10;0.10;;;;;;;;;;5075777;28;20430;-87
2024/03/16 05:21:29;;;;;;;0.20;0.20;;;;;;;;;;5058956;28;20040;-86
2024/03/16 05:23:55;;;;;;;0.10;0.10;;;;;;;;;;5058960;28;20032;-85
2024/03/16 05:26:21;;;;;;;0.10;0.10;;;;;;;;;;5075993;28;20043;-86
2024/03/16 05:28:47;;;;;;;0.20;0.20;;;;;;;;;;5075707;28;20131;-86
2024/03/16 05:31:14;;;;;;;0.10;0.10;;;;;;;;;;5058878;28;20032;-86
2024/03/16 05:33:40;;;;;;;0.10;0.10;;;;;;;;;;5058564;28;20040;-85
2024/03/16 05:36:06;;;;;;;0.10;0.10;;;;;;;;;;5075369;28;20036;-85
2024/03/16 05:38:33;;;;;;;1.13;0.95;;;;;;;;;;5058633;28;20444;-87
2024/03/16 05:40:59;;;;;;;0.10;0.10;;;;;;;;;;5074879;28;20100;-86
2024/03/16 05:43:25;;;;;;;0.10;0.10;;;;;;;;;;5058697;28;20418;-86
2024/03/16 05:45:54;;;;;;;0.10;0.10;;;;;;;;;;5058617;28;20495;-86
2024/03/16 05:48:20;;;;;;;0.10;0.10;;;;;;;;;;5075290;28;20524;-86
2024/03/16 05:50:49;;;;;;;0.20;0.20;;;;;;;;;;5058043;28;20067;-86
2024/03/16 05:53:16;;;;;;;0.65;0.22;;;;;;;;;;5058469;28;20085;-86
2024/03/16 05:55:42;;;;;;;0.10;0.10;;;;;;;;;;5059484;28;20052;-87
2024/03/16 05:58:08;;;;;;;0.10;0.10;;;;;;;;;;5074759;28;20093;-86
2024/03/16 06:00:37;;;;;;;0.10;0.10;;;;;;;;;;5074857;28;20445;-87
2024/03/16 06:03:04;;;;;;;0.10;0.10;;;;;;;;;;5058279;28;20135;-87
2024/03/16 06:05:33;;;;;;;0.20;0.20;;;;;;;;;;5058383;28;20146;-85
2024/03/16 06:08:02;;;;;;;0.10;0.10;;;;;;;;;;5058409;28;20072;-86
2024/03/16 06:10:28;;;;;;;0.10;0.10;;;;;;;;;;5058231;28;20044;-87
2024/03/16 06:12:54;;;;;;;0.10;0.10;;;;;;;;;;5074857;28;20040;-88
2024/03/16 06:15:20;;;;;;;0.10;0.10;;;;;;;;;;5091674;28;20465;-88
2024/03/16 06:17:46;;;;;;;0.10;0.10;;;;;;;;;;5057950;28;20486;-87
2024/03/16 06:20:15;;;;;;;0.05;0.05;;;;;;;;;;5058005;28;20096;-87
2024/03/16 06:22:41;;;;;;;0.10;0.10;;;;;;;;;;5058074;28;20036;-86
2024/03/16 06:25:11;;;;;;;0.10;0.10;;;;;;;;;;5091174;28;20479;-87
2024/03/16 06:27:43;;;;;;;0.10;0.10;;;;;;;;;;5058330;28;20047;-86
2024/03/16 06:30:13;;;;;;;0.10;0.10;;;;;;;;;;5058392;28;20487;-87
2024/03/16 06:32:44;;;;;;;0.10;0.10;;;;;;;;;;5074423;28;20136;-86
2024/03/16 06:35:11;;;;;;;0.10;0.10;;;;;;;;;;5058587;28;20039;-87
2024/03/16 06:37:37;;;;;;;0.10;0.10;;;;;;;;;;5057801;28;20039;-86
2024/03/16 06:40:04;;;;;;;0.10;0.10;;;;;;;;;;5057454;28;20448;-86
2024/03/16 06:42:30;;;;;;;0.10;0.10;;;;;;;;;;5074407;28;20032;-85
2024/03/16 06:44:56;;;;;;;0.10;0.10;;;;;;;;;;5057687;28;20101;-84
2024/03/16 06:47:22;;;;;;;0.10;0.10;;;;;;;;;;5074310;28;20032;-85
2024/03/16 06:49:49;;;;;;;0.10;0.10;;;;;;;;;;5057402;28;20130;-85
2024/03/16 06:52:24;;;;;;;0.10;0.10;;;;;;;;;;5057871;28;20365;-85
2024/03/16 06:54:51;;;;;;;0.10;0.10;;;;;;;;;;5061385;28;20082;-85
2024/03/16 06:57:17;;;;;;;0.10;0.10;;;;;;;;;;5078526;28;20434;-85
2024/03/16 06:59:43;;;;;;;0.10;0.10;;;;;;;;;;5078289;28;20466;-84
2024/03/16 07:02:09;;;;;;;0.10;0.10;;;;;;;;;;5061676;28;20503;-85
2024/03/16 07:04:35;;;;;;;0.40;0.40;;;;;;;;;;5061283;28;20040;-87
2024/03/16 07:07:01;;;;;;;0.10;0.10;;;;;;;;;;5078003;28;20032;-86
2024/03/16 07:09:27;;;;;;;0.10;0.10;;;;;;;;;;5078348;28;20040;-86
2024/03/16 07:11:53;;;;;;;0.10;0.10;;;;;;;;;;5077810;28;20090;-86
2024/03/16 07:14:19;;;;;;;0.10;0.10;;;;;;;;;;5061392;28;20051;-86
2024/03/16 07:16:46;;;;;;;0.10;0.10;;;;;;;;;;5061073;28;20040;-86
2024/03/16 07:19:12;;;;;;;0.30;0.30;;;;;;;;;;5061295;28;20040;-86
2024/03/16 07:21:38;;;;;;;0.10;0.10;;;;;;;;;;5077900;28;20387;-85
2024/03/16 07:24:04;;;;;;;0.10;0.10;;;;;;;;;;5061215;28;20036;-84
2024/03/16 07:26:30;;;;;;;0.60;0.60;;;;;;;;;;5077962;28;20040;-85
2024/03/16 07:28:56;;;;;;;0.10;0.10;;;;;;;;;;5078065;28;20486;-86
2024/03/16 07:31:22;;;;;;;0.10;0.10;;;;;;;;;;5061016;28;20411;-86
2024/03/16 07:33:49;;;;;;;0.10;0.10;;;;;;;;;;5077937;28;20464;-86
2024/03/16 07:36:15;;;;;;;0.10;0.10;;;;;;;;;;5077849;28;20443;-86
2024/03/16 07:38:41;;;;;;;0.10;0.10;;;;;;;;;;5060854;28;20123;-86
2024/03/16 07:41:08;;;;;;;0.10;0.10;;;;;;;;;;5094011;28;20040;-86
2024/03/16 07:43:34;;;;;;;0.57;0.57;;;;;;;;;;5060799;28;20070;-87
2024/03/16 07:46:00;;;;;;;0.10;0.10;;;;;;;;;;5077664;28;20116;-87
2024/03/16 07:48:26;;;;;;;0.10;0.10;;;;;;;;;;5060881;28;20394;-85
2024/03/16 07:50:59;;;;;;;0.20;0.20;;;;;;;;;;5060569;28;20123;-86
2024/03/16 07:53:26;;;;;;;0.10;0.10;;;;;;;;;;5060633;28;20464;-86
2024/03/16 07:55:54;;;;;;;0.10;0.10;;;;;;;;;;5077370;28;20044;-88
2024/03/16 07:58:20;;;;;;;0.10;0.10;;;;;;;;;;5060804;28;20036;-85
2024/03/16 08:00:47;;;;;;;0.10;0.10;;;;;;;;;;5094003;28;20090;-89
2024/03/16 08:03:13;;;;;;;0.10;0.10;;;;;;;;;;5060734;28;20105;-90
2024/03/16 08:05:39;;;;;;;0.10;0.10;;;;;;;;;;5060368;28;20040;-86
2024/03/16 08:08:05;;;;;;;0.20;0.20;;;;;;;;;;5077152;28;20391;-88
2024/03/16 08:10:32;;;;;;;0.10;0.10;;;;;;;;;;5076887;28;20048;-88
2024/03/16 08:12:58;;;;;;;0.20;0.20;;;;;;;;;;5060390;28;20073;-86
2024/03/16 08:15:24;;;;;;;0.10;0.10;;;;;;;;;;5060232;28;20471;-86
2024/03/16 08:17:52;;;;;;;0.10;0.10;;;;;;;;;;5060449;28;20253;-86
2024/03/16 08:20:18;;;;;;;0.13;0.13;;;;;;;;;;5060374;28;20094;-86
2024/03/16 08:22:48;;;;;;;0.10;0.10;;;;;;;;;;5076835;28;20068;-89
2024/03/16 08:25:14;;;;;;;0.10;0.10;;;;;;;;;;5060590;28;20036;-88
2024/03/16 08:27:40;;;;;;;0.10;0.10;;;;;;;;;;5060367;28;20036;-88
2024/03/16 08:30:07;;;;;;;0.10;0.10;;;;;;;;;;5060093;28;20097;-87
2024/03/16 08:32:33;;;;;;;0.10;0.10;;;;;;;;;;5059894;28;20036;-88
2024/03/16 08:35:03;;;;;;;0.10;0.10;;;;;;;;;;5077460;28;20150;-95
2024/03/16 08:37:32;;;;;;;0.10;0.10;;;;;;;;;;5063091;28;20048;-91
2024/03/16 08:39:58;;;;;;;0.10;0.10;;;;;;;;;;5060329;28;20052;-92
2024/03/16 08:42:24;;;;;;;0.10;0.10;;;;;;;;;;5060283;28;20075;-88
2024/03/16 08:44:50;;;;;;;0.10;0.10;;;;;;;;;;5076460;28;20036;-88
2024/03/16 08:47:16;;;;;;;0.10;0.10;;;;;;;;;;5064009;28;20036;-88
2024/03/16 08:49:43;;;;;;;0.10;0.10;;;;;;;;;;5075005;28;20074;-86
2024/03/16 08:52:09;;;;;;;0.10;0.10;;;;;;;;;;5095888;28;20410;-87
2024/03/16 08:54:35;;;;;;;0.10;0.10;;;;;;;;;;5095801;28;20411;-87
2024/03/16 08:57:04;;;;;;;0.10;0.10;;;;;;;;;;5074454;28;20040;-84
2024/03/16 08:59:31;;;;;;;0.13;0.13;;;;;;;;;;5074005;28;20548;-84
2024/03/16 09:01:57;;;;;;;0.10;0.10;;;;;;;;;;5104323;28;20130;-84
2024/03/16 09:04:23;;;;;;;0.13;0.13;;;;;;;;;;5079242;28;20043;-86
2024/03/16 09:06:49;;;;;;;0.10;0.10;;;;;;;;;;5079102;28;20035;-86
2024/03/16 09:09:16;;;;;;;0.10;0.10;;;;;;;;;;5075061;28;20051;-86
2024/03/16 09:11:42;;;;;;;0.10;0.10;;;;;;;;;;5078322;28;21182;-86
2024/03/16 09:14:08;;;;;;;0.10;0.10;;;;;;;;;;5078737;28;20044;-86
2024/03/16 09:16:36;;;;;;;0.10;0.10;;;;;;;;;;5078195;28;20399;-87
2024/03/16 09:19:02;;;;;;;0.85;0.45;;;;;;;;;;5095454;28;20040;-86
2024/03/16 09:21:28;;;;;;;0.20;0.20;;;;;;;;;;5074710;28;20042;-85
2024/03/16 09:23:54;;;;;;;0.10;0.10;;;;;;;;;;5075760;28;20383;-86
2024/03/16 09:26:20;;;;;;;0.20;0.20;;;;;;;;;;5058536;28;20032;-86
2024/03/16 09:28:47;;;;;;;0.10;0.10;;;;;;;;;;5058486;28;20040;-86
2024/03/16 09:31:13;;;;;;;0.10;0.10;;;;;;;;;;5075105;28;20085;-86
2024/03/16 09:33:39;;;;;;;0.10;0.10;;;;;;;;;;5058620;28;20089;-87
2024/03/16 09:36:06;;;;;;;0.10;0.10;;;;;;;;;;5092249;28;20066;-85
2024/03/16 09:38:32;;;;;;;0.10;0.10;;;;;;;;;;5075198;28;20066;-85
2024/03/16 09:40:59;;;;;;;0.10;0.10;;;;;;;;;;5075035;28;20062;-85
2024/03/16 09:43:25;;;;;;;0.93;0.63;;;;;;;;;;5058618;28;20102;-83
2024/03/16 09:45:51;;;;;;;0.10;0.10;;;;;;;;;;5075095;28;20036;-84
2024/03/16 09:48:17;;;;;;;0.45;0.30;;;;;;;;;;5091992;28;20062;-85
2024/03/16 09:50:54;;;;;;;0.10;0.10;;;;;;;;;;5058331;28;20196;-84
2024/03/16 09:53:24;;;;;;;0.10;0.10;;;;;;;;;;5059439;28;20036;-84
2024/03/16 09:55:50;;;;;;;0.10;0.10;;;;;;;;;;5075141;28;20040;-83
2024/03/16 09:58:18;;;;;;;0.10;0.10;;;;;;;;;;5058253;28;20038;-85
2024/03/16 10:00:44;;;;;;;0.10;0.10;;;;;;;;;;5074709;28;20079;-84
2024/03/16 10:03:11;;;;;;;0.10;0.10;;;;;;;;;;5074675;28;20062;-85
2024/03/16 10:05:37;;;;;;;0.17;0.17;;;;;;;;;;5091737;28;20031;-85
2024/03/16 10:08:04;;;;;;;0.10;0.10;;;;;;;;;;5075146;28;20378;-85
2024/03/16 10:10:30;;;;;;;0.10;0.10;;;;;;;;;;5074973;28;20047;-85
2024/03/16 10:13:10;;;;;;;0.10;0.10;;;;;;;;;;5074649;28;20054;-85
2024/03/16 10:15:41;;;;;;;0.10;0.10;;;;;;;;;;5058808;28;20050;-84
2024/03/16 10:18:11;;;;;;;0.10;0.10;;;;;;;;;;5058543;28;20047;-86
2024/03/16 10:20:37;;;;;;;0.10;0.10;;;;;;;;;;5058208;28;20078;-85
2024/03/16 10:23:04;;;;;;;0.20;0.20;;;;;;;;;;5075506;28;20044;-88
2024/03/16 10:25:31;;;;;;;0.10;0.10;;;;;;;;;;5074738;28;20051;-85
2024/03/16 10:27:58;;;;;;;0.10;0.10;;;;;;;;;;5074561;28;20112;-85
2024/03/16 10:30:24;;;;;;;0.10;0.10;;;;;;;;;;5091395;28;20039;-85
2024/03/16 10:32:53;;;;;;;0.30;0.30;;;;;;;;;;5091160;28;20046;-83
2024/03/16 10:35:26;;;;;;;0.20;0.20;;;;;;;;;;5093566;28;20039;-83
2024/03/16 10:37:52;;;;;;;;;;;;;;;;;;5110000;28;20053;-82
2024/03/16 10:40:18;;;;;;;1.17;0.20;;;;;;;;;;5110687;28;19919;-85
2024/03/16 10:42:45;;;;;;;0.10;0.10;;;;;;;;;;5073163;28;20519;-82
2024/03/16 10:45:13;;;;;;;0.10;0.10;;;;;;;;;;5083070;28;20035;-84
2024/03/16 10:47:41;;;;;;;0.10;0.10;;;;;;;;;;5094351;28;20047;-82
2024/03/16 10:50:09;;;;;;;0.82;0.82;;;;;;;;;;5072314;28;20054;-83
2024/03/16 10:52:35;;;;;;;0.10;0.10;;;;;;;;;;5057686;28;20044;-86
2024/03/16 10:55:07;;;;;;;0.10;0.10;;;;;;;;;;5066561;28;20040;-85
2024/03/16 10:57:36;;;;;;;0.10;0.10;;;;;;;;;;5078734;28;20042;-87
2024/03/16 11:00:12;;;;;;;0.10;0.10;;;;;;;;;;5084258;28;20040;-89
2024/03/16 11:02:55;;;;;;;0.10;0.10;;;;;;;;;;5115484;28;20115;-87
2024/03/16 11:05:35;;;;;;;0.10;0.10;;;;;;;;;;5100438;28;20046;-87
2024/03/16 11:08:01;;;;;;;0.10;0.10;;;;;;;;;;5078478;28;20032;-84
2024/03/16 11:10:39;;;;;;;0.10;0.10;;;;;;;;;;5094038;28;20085;-84
2024/03/16 11:13:17;;;;;;;0.13;0.13;;;;;;;;;;5078050;28;20035;-83
2024/03/16 11:15:47;;;;;;;0.10;0.10;;;;;;;;;;5111130;28;20112;-84
2024/03/16 11:18:19;;;;;;;0.15;0.15;;;;;;;;;;5093958;28;20093;-81
2024/03/16 11:20:50;;;;;;;0.10;0.10;;;;;;;;;;5093813;28;20044;-84
2024/03/16 11:23:27;;;;;;;0.10;0.10;;;;;;;;;;5110960;28;20126;-84
2024/03/16 11:25:54;;;;;;;0.10;0.10;;;;;;;;;;5093762;28;20031;-84
2024/03/16 11:28:20;;;;;;;0.13;0.13;;;;;;;;;;5077420;28;20097;-83
2024/03/16 11:30:46;;;;;;;0.10;0.10;;;;;;;;;;5093753;28;20051;-85
2024/03/16 11:33:15;;;;;;;0.10;0.10;;;;;;;;;;5077240;28;20515;-84
2024/03/16 11:35:42;;;;;;;0.10;0.10;;;;;;;;;;5093897;28;20054;-84
2024/03/16 11:38:12;;;;;;;0.10;0.10;;;;;;;;;;5093989;28;20051;-83
2024/03/16 11:40:41;;;;;;;0.10;0.10;;;;;;;;;;5079342;28;20036;-84
2024/03/16 11:43:11;;;;;;;0.15;0.15;;;;;;;;;;5097742;28;20046;-87
2024/03/16 11:45:39;;;;;;;0.10;0.10;;;;;;;;;;5081531;28;20379;-87
2024/03/16 11:48:05;;;;;;;0.17;0.17;;;;;;;;;;5114569;28;20040;-86
2024/03/16 11:50:32;;;;;;;0.10;0.10;;;;;;;;;;5080500;28;20267;-84
2024/03/16 11:52:59;;;;;;;0.32;0.32;;;;;;;;;;5080462;28;20053;-83
2024/03/16 11:55:25;;;;;;;0.10;0.10;;;;;;;;;;5080827;28;20070;-85
2024/03/16 11:57:52;;;;;;;0.32;0.32;;;;;;;;;;5097314;28;20043;-85
2024/03/16 12:00:18;;;;;;;0.10;0.10;;;;;;;;;;5097324;28;20052;-86
2024/03/16 12:02:45;;;;;;;0.10;0.10;;;;;;;;;;5097009;28;20047;-85
2024/03/16 12:05:12;;;;;;;0.10;0.10;;;;;;;;;;5097372;28;20042;-86
2024/03/16 12:07:39;;;;;;;0.10;0.10;;;;;;;;;;5080426;28;20043;-85
2024/03/16 12:10:08;;;;;;;0.10;0.10;;;;;;;;;;5080232;28;20506;-87
2024/03/16 12:12:38;;;;;;;0.10;0.10;;;;;;;;;;5080661;28;20166;-87
2024/03/16 12:15:14;;;;;;;0.10;0.10;;;;;;;;;;5097637;28;20035;-86
2024/03/16 12:17:41;;;;;;;0.20;0.20;;;;;;;;;;5113893;28;20044;-85
2024/03/16 12:20:07;;;;;;;0.10;0.10;;;;;;;;;;5096608;28;20079;-84
2024/03/16 12:22:34;;;;;;;0.10;0.10;;;;;;;;;;5096547;28;20136;-83
2024/03/16 12:25:00;;;;;;;0.10;0.10;;;;;;;;;;5096331;28;20142;-83
2024/03/16 12:27:26;;;;;;;1.05;1.05;;;;;;;;;;5096871;28;20122;-82
2024/03/16 12:29:53;;;;;;;0.10;0.10;;;;;;;;;;5113679;28;20044;-84
2024/03/16 12:32:20;;;;;;;0.10;0.10;;;;;;;;;;5113637;28;20039;-83
2024/03/16 12:34:46;;;;;;;0.10;0.10;;;;;;;;;;5096581;28;20057;-82
2024/03/16 12:37:13;;;;;;;0.10;0.10;;;;;;;;;;5096616;28;20506;-82
2024/03/16 12:39:40;;;;;;;0.10;0.10;;;;;;;;;;5096737;28;20142;-82
2024/03/16 12:42:06;;;;;;;0.10;0.10;;;;;;;;;;5113648;28;20035;-83
2024/03/16 12:44:33;;;;;;;0.20;0.20;;;;;;;;;;5096515;28;20502;-83
2024/03/16 12:47:00;;;;;;;0.10;0.10;;;;;;;;;;5096854;28;20432;-82
2024/03/16 12:49:26;;;;;;;0.10;0.10;;;;;;;;;;5096385;28;20050;-81
2024/03/16 12:51:52;;;;;;;0.10;0.10;;;;;;;;;;5078587;28;20039;-82
2024/03/16 12:54:18;;;;;;;0.25;0.25;;;;;;;;;;5113195;28;20490;-82
2024/03/16 12:56:47;;;;;;;0.10;0.10;;;;;;;;;;5079791;28;20364;-81
2024/03/16 12:59:20;;;;;;;0.10;0.10;;;;;;;;;;5096585;28;20070;-84
2024/03/16 13:01:46;;;;;;;0.10;0.10;;;;;;;;;;5079708;28;20046;-85
2024/03/16 13:04:12;;;;;;;0.10;0.10;;;;;;;;;;5113212;28;20044;-84
2024/03/16 13:06:38;;;;;;;0.10;0.10;;;;;;;;;;5096290;28;20044;-84
2024/03/16 13:09:14;;;;;;;0.10;0.10;;;;;;;;;;5079352;28;20043;-83
2024/03/16 13:11:43;;;;;;;0.10;0.10;;;;;;;;;;5080536;28;20064;-83
2024/03/16 13:14:09;;;;;;;0.10;0.10;;;;;;;;;;5096251;28;20036;-84
2024/03/16 13:16:36;;;;;;;0.10;0.10;;;;;;;;;;5078931;28;20221;-85
2024/03/16 13:19:04;;;;;;;0.10;0.10;;;;;;;;;;5095584;28;20038;-85
2024/03/16 13:21:31;;;;;;;0.10;0.10;;;;;;;;;;5079267;28;20477;-86
2024/03/16 13:23:57;;;;;;;0.10;0.10;;;;;;;;;;5079088;28;20209;-86
2024/03/16 13:26:24;;;;;;;0.10;0.10;;;;;;;;;;5078715;28;20039;-90
2024/03/16 13:28:50;;;;;;;0.10;0.10;;;;;;;;;;5096059;28;20043;-86
2024/03/16 13:31:16;;;;;;;0.10;0.10;;;;;;;;;;5078689;28;20113;-87
2024/03/16 13:33:42;;;;;;;1.30;1.05;;;;;;;;;;5079942;28;20043;-85
2024/03/16 13:36:09;;;;;;;0.10;0.10;;;;;;;;;;5112598;28;20043;-86
2024/03/16 13:38:36;;;;;;;3.58;0.65;;;;;;;;;;5112328;28;20543;-87
2024/03/16 13:41:02;;;;;;;0.10;0.10;;;;;;;;;;5078614;28;20491;-85
2024/03/16 13:43:28;;;;;;;0.30;0.30;;;;;;;;;;5078283;28;20126;-85
2024/03/16 13:45:54;;;;;;;0.10;0.10;;;;;;;;;;5078452;28;20038;-85
2024/03/16 13:48:20;;;;;;;0.10;0.10;;;;;;;;;;5095193;28;20036;-85
2024/03/16 13:50:48;;;;;;;0.40;0.40;;;;;;;;;;5078717;28;20044;-88
2024/03/16 13:53:14;;;;;;;0.10;0.10;;;;;;;;;;5078558;28;20039;-90
2024/03/16 13:55:40;;;;;;;0.10;0.10;;;;;;;;;;5078563;28;20475;-91
2024/03/16 13:58:08;;;;;;;0.10;0.10;;;;;;;;;;5078494;28;20047;-88
2024/03/16 14:00:34;;;;;;;0.10;0.10;;;;;;;;;;5078496;28;20043;-91
2024/03/16 14:03:00;;;;;;;0.10;0.10;;;;;;;;;;5077901;28;20048;-90
2024/03/16 14:05:30;;;;;;;0.10;0.10;;;;;;;;;;5078356;28;20378;-83
2024/03/16 14:07:56;;;;;;;0.10;0.10;;;;;;;;;;5095244;28;20071;-84
2024/03/16 14:10:23;;;;;;;0.10;0.10;;;;;;;;;;5111420;28;20074;-84
2024/03/16 14:12:50;;;;;;;0.10;0.10;;;;;;;;;;5111529;28;20044;-84
2024/03/16 14:15:19;;;;;;;0.30;0.30;;;;;;;;;;5094821;28;20498;-84
2024/03/16 14:17:46;;;;;;;0.10;0.10;;;;;;;;;;5094481;28;20040;-84
2024/03/16 14:20:18;;;;;;;0.10;0.10;;;;;;;;;;5077568;28;20043;-83
2024/03/16 14:22:44;;;;;;;0.10;0.10;;;;;;;;;;5078652;28;20475;-82
2024/03/16 14:25:11;;;;;;;0.10;0.10;;;;;;;;;;5094474;28;20078;-85
2024/03/16 14:27:38;;;;;;;0.20;0.20;;;;;;;;;;5094500;28;20036;-89
2024/03/16 14:30:15;;;;;;;0.10;0.10;;;;;;;;;;5091986;28;20046;-94
2024/03/16 14:32:52;;;;;;;0.10;0.10;;;;;;;;;;5084182;28;20082;-88
2024/03/16 14:35:21;;;;;;;0.20;0.20;;;;;;;;;;5086697;28;20195;-95
2024/03/16 14:37:47;;;;;;;0.10;0.10;;;;;;;;;;5078444;28;20043;-87
2024/03/16 14:40:21;;;;;;;0.17;0.17;;;;;;;;;;5094831;28;20442;-87
2024/03/16 14:42:47;;;;;;;0.25;0.25;;;;;;;;;;5096530;28;20042;-87